createdAt,value
2023-12-11T00:00:16.547Z,29.67
2023-12-11T00:01:19.230Z,30.67
2023-12-11T00:02:22.028Z,28.55
2023-12-11T00:03:24.721Z,27.87
2023-12-11T00:04:27.394Z,26.75
2023-12-11T00:05:30.020Z,28.18
2023-12-11T00:06:32.681Z,26.58
2023-12-11T00:07:35.272Z,27.53
2023-12-11T00:08:37.897Z,28.13
2023-12-11T00:09:40.542Z,26.57
2023-12-11T00:10:43.200Z,27.48
2023-12-11T00:11:45.791Z,27.70
2023-12-11T00:12:48.421Z,27.12
2023-12-11T00:13:51.311Z,27.75
2023-12-11T00:14:55.383Z,27.88
2023-12-11T00:15:59.122Z,26.80
2023-12-11T00:17:01.787Z,27.13
2023-12-11T00:18:04.460Z,26.62
2023-12-11T00:19:07.241Z,27.25
2023-12-11T00:20:10.589Z,27.23
2023-12-11T00:21:13.285Z,26.67
2023-12-11T00:22:15.918Z,25.22
2023-12-11T00:23:18.516Z,28.12
2023-12-11T00:24:21.131Z,27.05
2023-12-11T00:25:23.766Z,26.50
2023-12-11T00:26:26.390Z,26.67
2023-12-11T00:27:29.592Z,25.98
2023-12-11T00:28:32.453Z,26.38
2023-12-11T00:29:35.062Z,25.60
2023-12-11T00:30:37.683Z,25.55
2023-12-11T00:31:40.474Z,25.72
2023-12-11T00:32:43.092Z,25.77
2023-12-11T00:33:45.942Z,26.42
2023-12-11T00:34:48.706Z,24.88
2023-12-11T00:35:51.660Z,25.38
2023-12-11T00:36:54.347Z,27.22
2023-12-11T00:37:56.987Z,25.37
2023-12-11T00:38:59.614Z,24.77
2023-12-11T00:40:02.303Z,25.13
2023-12-11T00:41:05.122Z,26.53
2023-12-11T00:42:07.805Z,27.62
2023-12-11T00:43:10.477Z,26.32
2023-12-11T00:44:13.163Z,27.42
2023-12-11T00:45:15.763Z,29.95
2023-12-11T00:46:25.299Z,29.27
2023-12-11T00:47:28.381Z,29.88
2023-12-11T00:48:31.355Z,30.62
2023-12-11T00:49:34.155Z,31.15
2023-12-11T00:50:36.856Z,30.90
2023-12-11T00:51:39.503Z,30.83
2023-12-11T00:52:42.197Z,30.83
2023-12-11T00:53:46.026Z,30.53
2023-12-11T00:54:48.656Z,30.13
2023-12-11T00:55:51.324Z,30.12
2023-12-11T00:56:53.956Z,28.88
2023-12-11T00:57:56.648Z,28.65
2023-12-11T00:58:59.248Z,28.43
2023-12-11T01:00:01.843Z,29.37
2023-12-11T01:01:04.970Z,29.20
2023-12-11T01:02:07.638Z,29.80
2023-12-11T01:03:10.313Z,29.45
2023-12-11T01:04:13.854Z,29.23
2023-12-11T01:05:16.614Z,27.43
2023-12-11T01:06:19.240Z,28.02
2023-12-11T01:07:21.819Z,29.97
2023-12-11T01:08:28.895Z,30.02
2023-12-11T01:09:31.545Z,29.53
2023-12-11T01:10:34.138Z,29.98
2023-12-11T01:11:36.799Z,29.07
2023-12-11T01:12:39.472Z,29.40
2023-12-11T01:13:42.247Z,29.65
2023-12-11T01:14:44.824Z,30.15
2023-12-11T01:15:47.423Z,28.33
2023-12-11T01:16:51.051Z,29.17
2023-12-11T01:17:53.904Z,30.02
2023-12-11T01:18:56.794Z,28.92
2023-12-11T01:19:59.549Z,28.32
2023-12-11T01:21:02.208Z,26.90
2023-12-11T01:22:04.884Z,25.72
2023-12-11T01:23:07.474Z,25.68
2023-12-11T01:24:10.096Z,25.68
2023-12-11T01:25:12.816Z,24.37
2023-12-11T01:26:15.447Z,25.02
2023-12-11T01:27:18.093Z,26.15
2023-12-11T01:28:20.693Z,26.38
2023-12-11T01:29:23.356Z,25.88
2023-12-11T01:30:25.968Z,25.53
2023-12-11T01:31:28.552Z,25.67
2023-12-11T01:32:31.163Z,26.07
2023-12-11T01:33:34.075Z,25.85
2023-12-11T01:34:36.905Z,26.25
2023-12-11T01:35:39.582Z,25.00
2023-12-11T01:36:44.065Z,23.95
2023-12-11T01:37:46.700Z,25.03
2023-12-11T01:38:51.348Z,24.78
2023-12-11T01:39:54.036Z,24.73
2023-12-11T01:40:56.793Z,24.38
2023-12-11T01:41:59.597Z,24.47
2023-12-11T01:43:19.271Z,25.62
2023-12-11T01:44:22.574Z,25.73
2023-12-11T01:45:25.234Z,24.53
2023-12-11T01:46:27.866Z,24.22
2023-12-11T01:47:30.725Z,25.72
2023-12-11T01:48:34.004Z,24.87
2023-12-11T01:49:37.492Z,23.12
2023-12-11T01:50:40.325Z,24.57
2023-12-11T01:51:43.492Z,25.15
2023-12-11T01:52:46.086Z,24.70
2023-12-11T01:53:50.414Z,25.40
2023-12-11T01:54:53.710Z,24.88
2023-12-11T01:55:56.798Z,23.77
2023-12-11T01:56:59.393Z,24.10
2023-12-11T01:58:02.990Z,24.58
2023-12-11T01:59:05.753Z,24.73
2023-12-11T02:01:26.934Z,24.88
2023-12-11T02:02:31.175Z,24.63
2023-12-11T02:03:33.935Z,24.72
2023-12-11T02:04:36.812Z,24.58
2023-12-11T02:05:39.840Z,24.52
2023-12-11T02:06:42.768Z,25.47
2023-12-11T02:07:45.580Z,26.23
2023-12-11T02:08:48.217Z,26.45
2023-12-11T02:09:50.827Z,26.85
2023-12-11T02:10:53.466Z,26.48
2023-12-11T02:11:59.036Z,25.63
2023-12-11T02:13:01.742Z,26.50
2023-12-11T02:14:04.873Z,26.37
2023-12-11T02:15:07.946Z,26.67
2023-12-11T02:16:17.317Z,25.68
2023-12-11T02:17:20.129Z,25.45
2023-12-11T02:18:23.437Z,26.27
2023-12-11T02:19:26.262Z,25.98
2023-12-11T02:20:28.865Z,25.65
2023-12-11T02:21:31.547Z,26.28
2023-12-11T02:22:34.231Z,25.25
2023-12-11T02:23:56.905Z,25.90
2023-12-11T02:25:03.676Z,27.10
2023-12-11T02:26:12.765Z,25.93
2023-12-11T02:27:15.701Z,28.27
2023-12-11T02:28:18.670Z,26.68
2023-12-11T02:29:21.439Z,27.97
2023-12-11T02:30:24.034Z,27.92
2023-12-11T02:31:26.773Z,28.53
2023-12-11T02:32:29.426Z,28.77
2023-12-11T02:33:32.285Z,28.63
2023-12-11T02:34:34.992Z,29.50
2023-12-11T02:35:42.341Z,29.05
2023-12-11T02:36:45.025Z,28.55
2023-12-11T02:37:47.735Z,29.82
2023-12-11T02:38:50.406Z,30.50
2023-12-11T02:39:53.086Z,29.13
2023-12-11T02:40:55.701Z,29.93
2023-12-11T02:41:58.268Z,29.27
2023-12-11T02:43:00.939Z,30.38
2023-12-11T02:44:03.552Z,29.27
2023-12-11T02:45:06.759Z,30.25
2023-12-11T02:46:09.493Z,29.97
2023-12-11T02:47:12.126Z,31.30
2023-12-11T02:48:15.247Z,29.18
2023-12-11T02:49:18.090Z,29.23
2023-12-11T02:50:20.731Z,30.65
2023-12-11T02:51:23.375Z,29.75
2023-12-11T02:52:26.016Z,30.63
2023-12-11T02:53:28.621Z,27.85
2023-12-11T02:54:31.294Z,29.67
2023-12-11T02:55:33.968Z,29.62
2023-12-11T02:56:40.186Z,30.38
2023-12-11T02:57:42.790Z,30.12
2023-12-11T02:58:45.679Z,29.23
2023-12-11T02:59:48.396Z,29.27
2023-12-11T03:00:51.098Z,28.98
2023-12-11T03:01:53.931Z,29.35
2023-12-11T03:02:56.954Z,29.53
2023-12-11T03:03:59.727Z,29.12
2023-12-11T03:05:02.536Z,32.03
2023-12-11T03:06:05.891Z,32.33
2023-12-11T03:07:08.543Z,30.77
2023-12-11T03:08:11.165Z,30.67
2023-12-11T03:09:13.791Z,29.65
2023-12-11T03:10:16.910Z,30.03
2023-12-11T03:11:19.479Z,30.38
2023-12-11T03:12:22.097Z,29.72
2023-12-11T03:13:24.732Z,30.80
2023-12-11T03:14:27.353Z,30.03
2023-12-11T03:15:31.884Z,31.42
2023-12-11T03:16:34.573Z,31.13
2023-12-11T03:17:37.361Z,30.00
2023-12-11T03:18:41.317Z,30.47
2023-12-11T03:19:44.090Z,30.58
2023-12-11T03:20:46.783Z,31.15
2023-12-11T03:21:49.439Z,29.38
2023-12-11T03:22:52.110Z,30.73
2023-12-11T03:23:54.720Z,29.68
2023-12-11T03:24:57.438Z,28.70
2023-12-11T03:26:00.098Z,29.35
2023-12-11T03:27:02.712Z,28.50
2023-12-11T03:28:05.351Z,28.15
2023-12-11T03:29:07.989Z,29.50
2023-12-11T03:30:10.833Z,28.23
2023-12-11T03:31:13.497Z,28.85
2023-12-11T03:32:16.179Z,29.63
2023-12-11T03:33:18.853Z,29.07
2023-12-11T03:34:21.563Z,28.50
2023-12-11T03:35:24.266Z,28.37
2023-12-11T03:36:26.871Z,27.82
2023-12-11T03:37:29.746Z,27.63
2023-12-11T03:38:32.494Z,28.40
2023-12-11T03:39:35.143Z,28.33
2023-12-11T03:40:37.767Z,27.95
2023-12-11T03:41:40.360Z,28.20
2023-12-11T03:42:44.720Z,29.67
2023-12-11T03:43:48.716Z,30.08
2023-12-11T03:44:51.349Z,29.88
2023-12-11T03:45:57.308Z,31.17
2023-12-11T03:47:00.045Z,32.92
2023-12-11T03:48:02.945Z,33.52
2023-12-11T03:49:05.659Z,32.33
2023-12-11T03:50:08.779Z,30.85
2023-12-11T03:51:11.358Z,29.22
2023-12-11T03:52:13.987Z,27.33
2023-12-11T03:53:16.840Z,25.38
2023-12-11T03:54:19.620Z,26.03
2023-12-11T03:55:22.470Z,25.65
2023-12-11T03:56:25.583Z,24.13
2023-12-11T03:57:28.407Z,24.27
2023-12-11T03:58:31.195Z,24.47
2023-12-11T03:59:34.623Z,24.57
2023-12-11T04:00:37.529Z,24.45
2023-12-11T04:01:40.448Z,25.23
2023-12-11T04:02:43.119Z,24.55
2023-12-11T04:03:45.823Z,22.93
2023-12-11T04:04:48.569Z,23.03
2023-12-11T04:05:51.273Z,22.80
2023-12-11T04:06:53.976Z,24.12
2023-12-11T04:07:56.947Z,23.63
2023-12-11T04:08:59.639Z,23.93
2023-12-11T04:10:02.459Z,24.70
2023-12-11T04:11:05.218Z,23.58
2023-12-11T04:12:07.929Z,22.72
2023-12-11T04:13:10.565Z,24.20
2023-12-11T04:14:13.490Z,24.22
2023-12-11T04:15:16.124Z,24.52
2023-12-11T04:16:18.685Z,22.92
2023-12-11T04:17:21.383Z,23.47
2023-12-11T04:18:24.052Z,22.88
2023-12-11T04:19:26.762Z,22.88
2023-12-11T04:20:29.486Z,22.10
2023-12-11T04:21:32.929Z,23.60
2023-12-11T04:22:35.573Z,23.60
2023-12-11T04:23:38.196Z,23.92
2023-12-11T04:24:40.837Z,22.93
2023-12-11T04:25:43.480Z,22.65
2023-12-11T04:26:46.121Z,22.98
2023-12-11T04:27:48.746Z,23.62
2023-12-11T04:28:51.370Z,24.00
2023-12-11T04:29:53.978Z,24.65
2023-12-11T04:30:56.621Z,22.07
2023-12-11T04:31:59.219Z,22.23
2023-12-11T04:33:02.045Z,22.12
2023-12-11T04:34:04.899Z,22.17
2023-12-11T04:35:07.722Z,21.95
2023-12-11T04:36:10.362Z,21.45
2023-12-11T04:37:13.299Z,20.58
2023-12-11T04:38:16.004Z,20.88
2023-12-11T04:39:18.629Z,20.65
2023-12-11T04:40:21.231Z,21.65
2023-12-11T04:41:23.821Z,23.70
2023-12-11T04:42:26.404Z,23.07
2023-12-11T04:43:31.776Z,22.43
2023-12-11T04:44:34.880Z,23.73
2023-12-11T04:45:37.511Z,23.08
2023-12-11T04:46:40.189Z,23.12
2023-12-11T04:47:42.861Z,23.60
2023-12-11T04:48:45.660Z,23.18
2023-12-11T04:49:48.530Z,23.93
2023-12-11T04:50:51.254Z,23.62
2023-12-11T04:51:53.952Z,22.97
2023-12-11T04:52:56.612Z,23.83
2023-12-11T04:54:00.079Z,23.83
2023-12-11T04:55:02.888Z,25.03
2023-12-11T04:56:09.238Z,25.05
2023-12-11T04:57:11.897Z,26.23
2023-12-11T04:58:14.738Z,25.60
2023-12-11T04:59:17.362Z,26.52
2023-12-11T05:00:20.121Z,28.45
2023-12-11T05:01:23.466Z,27.60
2023-12-11T05:02:26.122Z,26.17
2023-12-11T05:03:28.736Z,25.33
2023-12-11T05:04:31.369Z,24.03
2023-12-11T05:05:35.930Z,24.27
2023-12-11T05:06:38.627Z,24.70
2023-12-11T05:07:42.011Z,24.83
2023-12-11T05:08:44.640Z,24.35
2023-12-11T05:09:47.388Z,22.88
2023-12-11T05:10:50.089Z,23.82
2023-12-11T05:11:52.725Z,22.87
2023-12-11T05:12:55.388Z,23.22
2023-12-11T05:13:58.033Z,23.25
2023-12-11T05:15:03.421Z,23.03
2023-12-11T05:16:06.543Z,21.60
2023-12-11T05:17:09.254Z,22.45
2023-12-11T05:18:12.024Z,22.52
2023-12-11T05:19:14.803Z,24.98
2023-12-11T05:20:19.545Z,23.97
2023-12-11T05:21:23.343Z,23.13
2023-12-11T05:22:25.991Z,22.70
2023-12-11T05:23:28.618Z,22.78
2023-12-11T05:24:31.266Z,21.62
2023-12-11T05:25:34.143Z,21.15
2023-12-11T05:26:36.782Z,21.00
2023-12-11T05:27:39.393Z,22.12
2023-12-11T05:28:41.987Z,23.87
2023-12-11T05:29:44.563Z,24.07
2023-12-11T05:30:47.213Z,23.08
2023-12-11T05:31:50.034Z,22.72
2023-12-11T05:32:52.679Z,22.53
2023-12-11T05:33:55.390Z,21.97
2023-12-11T05:34:58.103Z,22.77
2023-12-11T05:36:00.673Z,22.58
2023-12-11T05:37:03.353Z,22.98
2023-12-11T05:38:06.100Z,23.72
2023-12-11T05:39:08.714Z,25.02
2023-12-11T05:40:21.984Z,24.65
2023-12-11T05:41:27.251Z,23.78
2023-12-11T05:42:29.884Z,24.47
2023-12-11T05:43:32.471Z,25.68
2023-12-11T05:44:35.089Z,25.23
2023-12-11T05:45:37.755Z,23.83
2023-12-11T05:46:40.394Z,22.72
2023-12-11T05:47:43.228Z,23.05
2023-12-11T05:48:45.989Z,22.42
2023-12-11T05:49:48.941Z,22.53
2023-12-11T05:50:51.580Z,23.35
2023-12-11T05:51:54.773Z,23.90
2023-12-11T05:52:57.494Z,24.23
2023-12-11T05:54:00.151Z,25.87
2023-12-11T05:55:02.932Z,26.43
2023-12-11T05:56:06.515Z,26.30
2023-12-11T05:57:09.130Z,25.67
2023-12-11T05:58:11.820Z,26.22
2023-12-11T05:59:14.438Z,26.17
2023-12-11T06:00:17.420Z,25.27
2023-12-11T06:01:20.140Z,24.90
2023-12-11T06:02:22.855Z,25.22
2023-12-11T06:03:25.552Z,24.85
2023-12-11T06:04:28.188Z,25.20
2023-12-11T06:05:30.824Z,24.08
2023-12-11T06:06:33.581Z,23.65
2023-12-11T06:07:36.492Z,22.90
2023-12-11T06:08:39.095Z,24.08
2023-12-11T06:09:41.735Z,24.38
2023-12-11T06:10:44.350Z,25.08
2023-12-11T06:11:46.975Z,25.43
2023-12-11T06:12:49.708Z,25.52
2023-12-11T06:13:52.471Z,25.05
2023-12-11T06:14:55.112Z,23.43
2023-12-11T06:15:57.733Z,23.92
2023-12-11T06:17:01.161Z,23.67
2023-12-11T06:18:03.917Z,23.08
2023-12-11T06:19:06.767Z,24.67
2023-12-11T06:20:11.025Z,24.07
2023-12-11T06:21:21.109Z,25.72
2023-12-11T06:22:23.753Z,24.62
2023-12-11T06:23:26.397Z,24.62
2023-12-11T06:24:29.597Z,24.77
2023-12-11T06:25:32.206Z,23.78
2023-12-11T06:26:35.705Z,23.63
2023-12-11T06:27:38.404Z,23.07
2023-12-11T06:28:41.081Z,22.95
2023-12-11T06:29:43.858Z,23.33
2023-12-11T06:30:46.579Z,22.50
2023-12-11T06:31:49.205Z,23.93
2023-12-11T06:32:54.054Z,23.03
2023-12-11T06:33:57.805Z,23.80
2023-12-11T06:35:01.017Z,28.52
2023-12-11T06:36:03.793Z,32.25
2023-12-11T06:37:07.264Z,30.50
2023-12-11T06:38:10.607Z,27.68
2023-12-11T06:39:13.193Z,28.02
2023-12-11T06:40:15.902Z,27.67
2023-12-11T06:41:20.203Z,25.25
2023-12-11T06:42:25.277Z,24.45
2023-12-11T06:43:27.867Z,24.83
2023-12-11T06:44:30.669Z,23.40
2023-12-11T06:45:36.352Z,24.12
2023-12-11T06:46:40.792Z,22.98
2023-12-11T06:47:47.396Z,23.20
2023-12-11T06:48:54.176Z,24.20
2023-12-11T06:49:58.178Z,24.78
2023-12-11T06:52:34.730Z,24.27
2023-12-11T06:55:14.101Z,28.92
2023-12-11T06:56:20.391Z,25.92
2023-12-11T06:57:23.039Z,23.90
2023-12-11T06:58:30.154Z,23.52
2023-12-11T06:59:34.069Z,23.58
2023-12-11T07:00:37.538Z,23.85
2023-12-11T07:01:41.282Z,25.08
2023-12-11T07:02:44.351Z,46.23
2023-12-11T07:03:49.687Z,77.32
2023-12-11T07:04:52.649Z,58.22
2023-12-11T07:05:55.588Z,42.67
2023-12-11T07:07:01.264Z,38.97
2023-12-11T07:08:06.751Z,41.00
2023-12-11T07:09:17.699Z,28.82
2023-12-11T07:10:41.653Z,24.33
2023-12-11T07:12:05.519Z,23.28
2023-12-11T07:13:08.276Z,22.77
2023-12-11T07:14:11.030Z,22.92
2023-12-11T07:15:13.933Z,23.97
2023-12-11T07:16:17.032Z,23.75
2023-12-11T07:17:19.751Z,24.82
2023-12-11T07:18:23.433Z,26.35
2023-12-11T07:19:26.355Z,26.45
2023-12-11T07:20:28.997Z,26.40
2023-12-11T07:21:31.885Z,25.63
2023-12-11T07:22:36.575Z,24.27
2023-12-11T07:23:40.000Z,23.48
2023-12-11T07:24:42.719Z,24.78
2023-12-11T07:25:45.428Z,26.40
2023-12-11T07:26:48.107Z,24.15
2023-12-11T07:27:50.759Z,21.57
2023-12-11T07:28:54.098Z,21.60
2023-12-11T07:29:56.701Z,21.33
2023-12-11T07:31:00.178Z,21.72
2023-12-11T07:32:02.817Z,22.07
2023-12-11T07:33:05.650Z,23.10
2023-12-11T07:34:08.860Z,23.17
2023-12-11T07:35:12.922Z,22.55
2023-12-11T07:36:16.466Z,23.15
2023-12-11T07:37:19.218Z,24.98
2023-12-11T07:38:21.982Z,26.28
2023-12-11T07:39:24.731Z,44.17
2023-12-11T07:40:27.480Z,41.67
2023-12-11T07:41:30.143Z,31.08
2023-12-11T07:42:32.751Z,29.53
2023-12-11T07:43:35.415Z,28.02
2023-12-11T07:44:38.379Z,27.77
2023-12-11T07:45:42.016Z,25.68
2023-12-11T07:46:47.476Z,24.62
2023-12-11T07:47:53.122Z,25.77
2023-12-11T07:48:56.365Z,33.55
2023-12-11T07:50:02.575Z,33.73
2023-12-11T07:51:07.610Z,30.52
2023-12-11T07:52:11.779Z,30.50
2023-12-11T07:53:14.583Z,30.22
2023-12-11T07:54:17.944Z,28.72
2023-12-11T07:55:50.662Z,23.87
2023-12-11T07:56:56.777Z,23.92
2023-12-11T07:58:01.106Z,24.02
2023-12-11T07:59:08.546Z,23.63
2023-12-11T08:00:32.511Z,23.57
2023-12-11T08:01:35.507Z,23.43
2023-12-11T08:02:38.306Z,26.45
2023-12-11T08:03:41.408Z,32.37
2023-12-11T08:04:44.150Z,40.37
2023-12-11T08:05:46.902Z,41.08
2023-12-11T08:06:51.547Z,42.33
2023-12-11T08:07:54.217Z,44.88
2023-12-11T08:08:56.906Z,46.45
2023-12-11T08:09:59.560Z,43.32
2023-12-11T08:11:02.310Z,41.68
2023-12-11T08:12:05.505Z,42.23
2023-12-11T08:13:08.113Z,39.58
2023-12-11T08:14:10.778Z,31.15
2023-12-11T08:15:13.417Z,29.57
2023-12-11T08:16:16.631Z,27.95
2023-12-11T08:17:19.279Z,25.93
2023-12-11T08:18:22.020Z,25.55
2023-12-11T08:19:24.918Z,26.32
2023-12-11T08:20:28.810Z,36.22
2023-12-11T08:21:32.181Z,46.32
2023-12-11T08:22:34.780Z,53.18
2023-12-11T08:23:39.836Z,54.88
2023-12-11T08:24:42.615Z,46.38
2023-12-11T08:25:45.260Z,42.17
2023-12-11T08:26:48.325Z,35.17
2023-12-11T08:27:51.025Z,33.65
2023-12-11T08:28:53.755Z,34.25
2023-12-11T08:29:56.386Z,38.28
2023-12-11T08:30:59.104Z,38.97
2023-12-11T08:32:05.223Z,37.73
2023-12-11T08:33:09.166Z,37.28
2023-12-11T08:34:11.870Z,37.37
2023-12-11T08:35:14.572Z,37.38
2023-12-11T08:36:17.332Z,37.93
2023-12-11T08:37:20.219Z,37.93
2023-12-11T08:38:24.846Z,36.28
2023-12-11T08:39:27.491Z,36.07
2023-12-11T08:40:30.323Z,38.05
2023-12-11T08:41:32.928Z,36.07
2023-12-11T08:42:40.693Z,31.23
2023-12-11T08:43:44.577Z,28.65
2023-12-11T08:44:47.238Z,24.83
2023-12-11T08:45:50.466Z,24.37
2023-12-11T08:46:53.589Z,23.83
2023-12-11T08:47:56.555Z,24.73
2023-12-11T08:49:00.410Z,25.67
2023-12-11T08:50:05.432Z,27.90
2023-12-11T08:51:08.493Z,26.15
2023-12-11T08:52:13.257Z,25.27
2023-12-11T08:53:15.992Z,24.00
2023-12-11T08:54:19.964Z,23.63
2023-12-11T08:55:22.857Z,22.72
2023-12-11T08:56:28.857Z,23.83
2023-12-11T08:57:32.249Z,23.68
2023-12-11T08:58:35.110Z,24.22
2023-12-11T08:59:39.083Z,24.18
2023-12-11T09:00:41.903Z,23.88
2023-12-11T09:01:44.633Z,23.65
2023-12-11T09:02:47.275Z,23.00
2023-12-11T09:03:50.206Z,21.88
2023-12-11T09:04:53.062Z,22.08
2023-12-11T09:05:57.556Z,22.67
2023-12-11T09:07:00.712Z,22.55
2023-12-11T09:08:04.049Z,22.48
2023-12-11T09:09:07.169Z,22.52
2023-12-11T09:10:10.969Z,21.70
2023-12-11T09:11:13.611Z,20.88
2023-12-11T09:12:27.763Z,21.27
2023-12-11T09:13:36.312Z,19.75
2023-12-11T09:14:38.955Z,19.65
2023-12-11T09:15:41.635Z,19.12
2023-12-11T09:16:44.295Z,19.13
2023-12-11T09:17:47.134Z,18.20
2023-12-11T09:18:50.056Z,18.70
2023-12-11T09:19:55.771Z,18.72
2023-12-11T09:20:59.348Z,19.08
2023-12-11T09:22:02.260Z,19.13
2023-12-11T09:23:05.022Z,19.53
2023-12-11T09:24:07.816Z,19.08
2023-12-11T09:25:11.464Z,19.27
2023-12-11T09:26:14.235Z,20.30
2023-12-11T09:27:16.952Z,19.57
2023-12-11T09:28:19.742Z,19.63
2023-12-11T09:29:22.499Z,19.95
2023-12-11T09:30:25.215Z,20.27
2023-12-11T09:31:27.837Z,19.95
2023-12-11T09:32:30.555Z,19.95
2023-12-11T09:33:33.366Z,19.82
2023-12-11T09:34:36.239Z,20.05
2023-12-11T09:35:39.072Z,20.60
2023-12-11T09:36:41.948Z,20.05
2023-12-11T09:37:47.031Z,19.30
2023-12-11T09:38:49.682Z,19.53
2023-12-11T09:39:52.362Z,20.23
2023-12-11T09:40:55.553Z,20.75
2023-12-11T09:42:06.390Z,19.28
2023-12-11T09:43:11.281Z,20.68
2023-12-11T09:44:17.367Z,20.32
2023-12-11T09:45:25.219Z,21.12
2023-12-11T09:46:29.881Z,21.97
2023-12-11T09:47:39.399Z,21.75
2023-12-11T09:48:44.884Z,22.63
2023-12-11T09:49:49.470Z,22.10
2023-12-11T09:54:48.647Z,22.52
2023-12-11T09:55:51.894Z,22.58
2023-12-11T09:56:55.136Z,22.40
2023-12-11T09:57:58.300Z,23.00
2023-12-11T09:59:01.370Z,22.80
2023-12-11T10:00:07.762Z,23.48
2023-12-11T10:01:13.368Z,23.33
2023-12-11T10:02:17.159Z,24.47
2023-12-11T10:03:20.074Z,25.82
2023-12-11T10:04:22.952Z,24.55
2023-12-11T10:05:26.829Z,22.95
2023-12-11T10:06:29.870Z,23.27
2023-12-11T10:07:35.957Z,23.77
2023-12-11T10:08:45.500Z,25.03
2023-12-11T10:09:48.137Z,22.98
2023-12-11T10:10:50.805Z,23.33
2023-12-11T10:12:04.660Z,23.18
2023-12-11T10:13:07.522Z,23.50
2023-12-11T10:14:13.871Z,22.18
2023-12-11T10:15:27.719Z,22.70
2023-12-11T10:16:34.890Z,23.15
2023-12-11T10:17:37.530Z,22.87
2023-12-11T10:18:50.491Z,22.78
2023-12-11T10:19:53.564Z,23.15
2023-12-11T10:20:58.829Z,23.22
2023-12-11T10:22:04.932Z,23.83
2023-12-11T10:23:19.717Z,22.95
2023-12-11T10:24:23.776Z,22.70
2023-12-11T10:25:27.871Z,23.02
2023-12-11T10:26:34.952Z,22.12
2023-12-11T10:27:37.678Z,21.52
2023-12-11T10:28:41.634Z,21.85
2023-12-11T10:29:44.285Z,20.95
2023-12-11T10:30:52.193Z,21.32
2023-12-11T10:32:04.273Z,21.77
2023-12-11T10:33:08.468Z,22.67
2023-12-11T10:34:13.718Z,23.02
2023-12-11T10:35:26.778Z,22.83
2023-12-11T10:36:44.066Z,22.57
2023-12-11T10:40:08.286Z,22.07
2023-12-11T10:41:32.758Z,22.57
2023-12-11T10:46:56.901Z,21.87
2023-12-11T10:48:26.608Z,22.07
2023-12-11T10:49:30.950Z,21.25
2023-12-11T10:50:35.229Z,21.07
2023-12-11T10:51:38.512Z,20.78
2023-12-11T10:52:43.777Z,20.30
2023-12-11T10:53:47.248Z,20.42
2023-12-11T10:54:49.982Z,20.30
2023-12-11T10:55:54.489Z,22.08
2023-12-11T10:56:58.350Z,21.00
2023-12-11T10:58:04.970Z,20.78
2023-12-11T10:59:07.947Z,20.77
2023-12-11T11:00:15.264Z,19.98
2023-12-11T11:01:18.625Z,21.05
2023-12-11T11:02:24.122Z,21.63
2023-12-11T11:03:27.083Z,20.13
2023-12-11T11:04:34.480Z,19.83
2023-12-11T11:05:37.786Z,20.70
2023-12-11T11:07:07.877Z,20.20
2023-12-11T11:08:13.461Z,19.90
2023-12-11T11:09:25.618Z,21.20
2023-12-11T11:10:51.552Z,20.40
2023-12-11T11:12:03.724Z,20.22
2023-12-11T11:13:15.941Z,20.50
2023-12-11T11:14:43.512Z,18.52
2023-12-11T11:15:52.644Z,20.07
2023-12-11T11:17:00.349Z,20.13
2023-12-11T11:18:07.309Z,20.53
2023-12-11T11:19:10.443Z,20.35
2023-12-11T11:20:16.031Z,20.15
2023-12-11T11:21:18.886Z,19.92
2023-12-11T11:22:31.267Z,19.18
2023-12-11T11:23:47.106Z,19.90
2023-12-11T11:24:49.918Z,20.77
2023-12-11T11:25:55.726Z,19.58
2023-12-11T11:26:59.306Z,20.05
2023-12-11T11:28:04.421Z,19.37
2023-12-11T11:29:22.649Z,18.60
2023-12-11T11:30:48.814Z,18.33
2023-12-11T11:32:17.431Z,19.22
2023-12-11T11:35:00.741Z,19.07
2023-12-11T11:52:16.067Z,17.52
2023-12-11T11:53:20.023Z,18.03
2023-12-11T11:54:26.667Z,18.62
2023-12-11T11:55:29.870Z,19.00
2023-12-11T11:56:32.741Z,18.97
2023-12-11T11:57:37.600Z,17.65
2023-12-11T11:58:40.389Z,18.12
2023-12-11T11:59:46.683Z,18.78
2023-12-11T12:00:50.770Z,20.72
2023-12-11T12:01:55.445Z,19.83
2023-12-11T12:03:04.868Z,18.78
2023-12-11T12:04:07.742Z,17.05
2023-12-11T12:05:12.180Z,16.93
2023-12-11T12:06:18.687Z,17.38
2023-12-11T12:07:21.574Z,17.05
2023-12-11T12:09:41.822Z,17.25
2023-12-11T12:10:44.608Z,16.97
2023-12-11T12:11:47.411Z,16.62
2023-12-11T12:12:57.060Z,16.87
2023-12-11T12:14:01.002Z,17.50
2023-12-11T12:15:06.034Z,16.57
2023-12-11T12:16:08.878Z,17.58
2023-12-11T12:17:12.285Z,17.95
2023-12-11T12:18:15.214Z,17.25
2023-12-11T12:19:18.825Z,16.77
2023-12-11T12:20:22.054Z,17.03
2023-12-11T12:21:32.868Z,16.50
2023-12-11T12:22:38.383Z,17.87
2023-12-11T12:23:46.453Z,17.68
2023-12-11T12:24:51.306Z,17.50
2023-12-11T12:26:23.055Z,17.67
2023-12-11T12:27:36.587Z,16.40
2023-12-11T12:42:12.344Z,16.55
2023-12-11T12:43:54.916Z,16.98
2023-12-11T12:45:35.334Z,17.45
2023-12-11T12:46:43.346Z,16.80
2023-12-11T12:47:49.266Z,17.30
2023-12-11T12:48:52.006Z,16.67
2023-12-11T12:49:54.710Z,16.82
2023-12-11T12:51:13.265Z,16.78
2023-12-11T12:52:28.746Z,16.97
2023-12-11T12:53:31.469Z,16.73
2023-12-11T12:54:55.183Z,16.53
2023-12-11T12:55:57.827Z,17.18
2023-12-11T12:57:00.542Z,17.05
2023-12-11T12:58:03.918Z,17.18
2023-12-11T12:59:06.882Z,17.32
2023-12-11T13:01:12.189Z,16.80
2023-12-11T13:02:18.788Z,16.68
2023-12-11T13:03:26.846Z,17.22
2023-12-11T13:04:29.783Z,17.62
2023-12-11T13:05:43.480Z,17.55
2023-12-11T13:06:50.117Z,17.25
2023-12-11T13:08:00.816Z,17.47
2023-12-11T13:09:04.876Z,18.00
2023-12-11T13:10:13.421Z,17.27
2023-12-11T13:11:16.758Z,17.00
2023-12-11T13:12:20.124Z,17.67
2023-12-11T13:13:28.264Z,16.58
2023-12-11T13:14:31.646Z,17.72
2023-12-11T13:15:34.799Z,18.98
2023-12-11T13:16:38.707Z,18.68
2023-12-11T13:17:41.452Z,19.53
2023-12-11T13:18:44.206Z,19.95
2023-12-11T13:19:47.678Z,18.45
2023-12-11T13:21:01.770Z,19.03
2023-12-11T13:22:09.785Z,18.10
2023-12-11T13:23:50.777Z,17.28
2023-12-11T13:25:20.283Z,17.93
2023-12-11T13:26:25.706Z,16.33
2023-12-11T13:40:58.324Z,20.23
2023-12-11T13:42:01.005Z,21.43
2023-12-11T13:43:03.806Z,21.37
2023-12-11T13:44:06.522Z,22.12
2023-12-11T13:45:09.663Z,19.67
2023-12-11T13:46:12.398Z,18.55
2023-12-11T13:47:15.151Z,17.18
2023-12-11T13:48:17.929Z,16.78
2023-12-11T13:49:20.662Z,16.82
2023-12-11T13:50:23.431Z,16.58
2023-12-11T13:51:26.161Z,16.17
2023-12-11T13:52:28.867Z,16.67
2023-12-11T13:53:31.538Z,16.37
2023-12-11T13:54:34.257Z,15.85
2023-12-11T13:55:36.899Z,15.48
2023-12-11T13:56:39.482Z,15.92
2023-12-11T13:57:42.166Z,14.77
2023-12-11T13:58:44.755Z,16.07
2023-12-11T13:59:47.504Z,15.88
2023-12-11T14:00:50.641Z,16.32
2023-12-11T14:01:53.425Z,16.23
2023-12-11T14:03:01.531Z,15.35
2023-12-11T14:04:07.077Z,16.00
2023-12-11T14:05:10.269Z,15.75
2023-12-11T14:06:15.054Z,16.30
2023-12-11T14:07:18.314Z,16.20
2023-12-11T14:08:23.542Z,17.32
2023-12-11T14:09:27.337Z,16.08
2023-12-11T14:10:31.900Z,15.97
2023-12-11T14:11:34.613Z,16.03
2023-12-11T14:12:40.739Z,16.83
2023-12-11T14:13:44.064Z,22.50
2023-12-11T14:14:47.241Z,20.50
2023-12-11T14:15:49.926Z,27.48
2023-12-11T14:16:52.831Z,36.93
2023-12-11T14:17:55.677Z,37.00
2023-12-11T14:18:58.390Z,35.80
2023-12-11T14:20:01.450Z,38.12
2023-12-11T14:21:05.440Z,36.53
2023-12-11T14:22:08.129Z,32.68
2023-12-11T14:23:10.853Z,31.17
2023-12-11T14:24:13.500Z,30.73
2023-12-11T14:25:16.543Z,30.08
2023-12-11T14:26:19.180Z,28.30
2023-12-11T14:27:24.192Z,26.97
2023-12-11T14:28:27.383Z,26.27
2023-12-11T14:29:30.084Z,26.47
2023-12-11T14:30:39.276Z,25.83
2023-12-11T14:31:41.963Z,26.22
2023-12-11T14:32:44.773Z,26.17
2023-12-11T14:33:47.717Z,27.57
2023-12-11T14:34:50.670Z,27.70
2023-12-11T14:35:53.300Z,27.42
2023-12-11T14:36:55.965Z,28.52
2023-12-11T14:37:58.597Z,29.08
2023-12-11T14:39:01.832Z,28.58
2023-12-11T14:40:04.942Z,28.72
2023-12-11T14:41:08.027Z,29.37
2023-12-11T14:42:11.480Z,30.72
2023-12-11T14:43:14.449Z,32.97
2023-12-11T14:44:17.472Z,37.08
2023-12-11T14:45:20.270Z,38.73
2023-12-11T14:46:22.974Z,46.30
2023-12-11T14:47:26.287Z,54.17
2023-12-11T14:48:29.085Z,53.38
2023-12-11T14:49:31.865Z,49.63
2023-12-11T14:50:34.680Z,49.23